Weather at Epsilon Airport

Public forecast

Using degrees Celsius for public forecast. Weather courtesy of forecast.io.

Closest aviation weather report (METAR) to Epsilon Airport

Closest report is Woomera Airfield, 285.3 nm (528.5 km) SW.

2024/04/25 02:30 (retrieved 21 minutes ago)

YPWR 250230Z AUTO 18010KT 9999 // NCD 17/04 Q1029 RF000/0000

Closest aviation forecast (TAF) to Epsilon Airport

Forecast is more than 6 hours old.

Closest forecast is Touho Airport, 1,386.2 nm (2,567.3 km) ENE.

2024/04/24 18:00 (retrieved 9 hours ago)

TAF NWWU 241700Z 2418/2518 19008KT 9999 FEW020 SCT030 PROB30 TEMPO 2500/2506 4000 SHRA BKN014